Terminal Aerodrome Forecast
Issued by NWS

Current Version | Previous Version | Text Only | Print | Product List | Glossary On
Versions: 1 2 3 4 5 6 7 8 9 10 11 12 13 14 15 16 17 18 19 20 21 22 23 24 25 26 27 28 29 30 31 32 33 34 35 36 37 38 39 40 41 42
000
FTUS44 KHGX 180531
TAFCXO
TAF
KCXO 180531Z 1806/1906 12004KT P6SM VCSH OVC012
     FM180800 14004KT 4SM -RA BR SCT006 OVC009
     FM181700 07003KT P6SM VCSH BKN015
     FM190000 03005KT 6SM BR VCSH SCT009 BKN012=

USA.gov is the U.S. government's official web portal to all federal, state and local government web resources and services.